Time;durP1;ratioP1;P1;durP2;ratioP2;P2;SDS_P1;SDS_P2;PMS_P1;PMS_P2;Temp;Humidity;BMP_temperature;BMP_pressure;BME280_temperature;BME280_humidity;BME280_pressure;Samples;Min_cycle;Max_cycle;Signal;HPM_P1;HPM_P2
2023/03/11 00:01:05;;;;;;;6.60;1.17;;;;;;;-0.39;100.00;100567.19;5067641;28;20226;-65
2023/03/11 00:03:30;;;;;;;3.93;1.03;;;;;;;-0.40;100.00;100568.00;5067196;28;20031;-65
2023/03/11 00:06:00;;;;;;;5.83;1.23;;;;;;;-0.42;100.00;100571.19;5067801;28;20016;-65
2023/03/11 00:08:25;;;;;;;5.00;0.80;;;;;;;-0.46;100.00;100572.63;5067205;28;20524;-65
2023/03/11 00:10:54;;;;;;;6.37;0.77;;;;;;;-0.50;100.00;100574.06;5067314;28;20118;-65
2023/03/11 00:13:19;;;;;;;5.77;0.80;;;;;;;-0.53;100.00;100572.94;5066867;28;20089;-65
2023/03/11 00:15:47;;;;;;;3.67;0.90;;;;;;;-0.61;100.00;100573.28;5068555;28;20024;-65
2023/03/11 00:18:13;;;;;;;5.50;0.90;;;;;;;-0.69;100.00;100571.84;5053630;28;20027;-65
2023/03/11 00:20:42;;;;;;;10.50;1.20;;;;;;;-0.76;100.00;100579.81;5057197;28;20025;-65
2023/03/11 00:23:08;;;;;;;4.73;1.20;;;;;;;-0.85;100.00;100585.97;5067785;28;20036;-65
2023/03/11 00:25:37;;;;;;;5.80;0.77;;;;;;;-0.91;100.00;100584.63;5059697;28;20019;-65
2023/03/11 00:28:03;;;;;;;3.53;1.13;;;;;;;-1.01;100.00;100589.03;5048716;28;20021;-65
2023/03/11 00:30:29;;;;;;;2.37;1.13;;;;;;;-1.07;100.00;100591.13;5048552;28;20012;-66
2023/03/11 00:32:57;;;;;;;5.40;0.90;;;;;;;-1.12;100.00;100590.78;5048574;28;20199;-65
2023/03/11 00:35:25;;;;;;;6.80;1.07;;;;;;;-1.15;100.00;100589.66;5048751;28;20085;-65
2023/03/11 00:37:54;;;;;;;7.33;1.20;;;;;;;-1.17;100.00;100596.28;5048437;28;20052;-65
2023/03/11 00:40:21;;;;;;;7.53;0.90;;;;;;;-1.19;100.00;100602.91;5048701;28;20061;-65
2023/03/11 00:42:46;;;;;;;7.87;0.87;;;;;;;-1.20;100.00;100602.03;5049249;28;20419;-65
2023/03/11 00:45:13;;;;;;;3.17;1.03;;;;;;;-1.24;100.00;100610.22;5049278;28;20017;-65
2023/03/11 00:47:38;;;;;;;4.27;0.80;;;;;;;-1.24;100.00;100613.63;5048348;28;20041;-65
2023/03/11 00:50:05;;;;;;;4.63;1.40;;;;;;;-1.25;100.00;100619.50;5048822;28;20051;-65
2023/03/11 00:52:30;;;;;;;6.53;1.27;;;;;;;-1.26;100.00;100611.75;5047813;28;20103;-65
2023/03/11 00:54:58;;;;;;;4.20;1.10;;;;;;;-1.27;100.00;100610.84;5049142;28;20080;-65
2023/03/11 00:57:23;;;;;;;4.87;1.10;;;;;;;-1.26;100.00;100617.69;5048075;28;20902;-65
2023/03/11 00:59:48;;;;;;;6.17;1.47;;;;;;;-1.26;100.00;100617.69;5048218;28;20033;-65
2023/03/11 01:02:14;;;;;;;4.90;0.93;;;;;;;-1.28;100.00;100619.25;5048080;28;20029;-65
2023/03/11 01:04:39;;;;;;;4.80;1.10;;;;;;;-1.29;100.00;100617.47;5056423;28;20019;-66
2023/03/11 01:07:04;;;;;;;3.93;1.00;;;;;;;-1.30;100.00;100630.97;5067344;28;20461;-65
2023/03/11 01:09:30;;;;;;;6.13;0.90;;;;;;;-1.30;100.00;100637.69;5067862;28;20457;-66
2023/03/11 01:11:55;;;;;;;8.40;1.50;;;;;;;-1.31;100.00;100634.25;5053451;28;20090;-66
2023/03/11 01:14:21;;;;;;;5.13;1.40;;;;;;;-1.30;100.00;100635.16;5056338;28;20048;-66
2023/03/11 01:16:46;;;;;;;6.80;1.07;;;;;;;-1.30;100.00;100646.22;5063184;28;20070;-66
2023/03/11 01:19:12;;;;;;;8.43;1.00;;;;;;;-1.31;100.00;100646.09;5067356;28;20027;-66
2023/03/11 01:21:38;;;;;;;4.17;0.90;;;;;;;-1.31;100.00;100648.66;5067127;28;20242;-66
2023/03/11 01:24:04;;;;;;;8.13;1.57;;;;;;;-1.28;100.00;100651.44;5066650;28;20035;-66
2023/03/11 01:26:29;;;;;;;5.20;1.20;;;;;;;-1.27;100.00;100651.53;5066369;28;20021;-66
2023/03/11 01:28:54;;;;;;;8.50;1.27;;;;;;;-1.25;100.00;100650.00;5066879;28;20070;-66
2023/03/11 01:31:20;;;;;;;4.50;1.23;;;;;;;-1.23;100.00;100656.09;5066055;28;20020;-66
2023/03/11 01:33:45;;;;;;;7.27;1.20;;;;;;;-1.19;100.00;100661.41;5067105;28;20059;-66
2023/03/11 01:36:10;;;;;;;8.33;1.60;;;;;;;-1.18;100.00;100650.47;5065872;28;20045;-66
2023/03/11 01:38:36;;;;;;;5.83;1.23;;;;;;;-1.22;100.00;100650.22;5067126;28;20012;-66
2023/03/11 01:41:02;;;;;;;3.27;1.10;;;;;;;-1.22;100.00;100654.41;5066679;28;20024;-66
2023/03/11 01:43:50;;;;;;;4.03;0.93;;;;;;;-1.25;100.00;100649.09;5067587;28;20017;-66
2023/03/11 01:46:34;;;;;;;4.60;1.10;;;;;;;-1.29;100.00;100653.06;5066603;28;20095;-66
2023/03/11 01:49:01;;;;;;;4.27;1.17;;;;;;;-1.33;100.00;100657.03;5066380;28;20035;-66
2023/03/11 01:51:38;;;;;;;4.67;1.30;;;;;;;-1.35;100.00;100660.25;5066470;28;20024;-66
2023/03/11 01:54:09;;;;;;;6.83;1.33;;;;;;;-1.35;100.00;100662.78;5066504;28;20025;-66
2023/03/11 01:56:35;;;;;;;6.43;1.23;;;;;;;-1.36;100.00;100661.00;5067029;28;20020;-66
2023/03/11 01:59:01;;;;;;;4.20;1.40;;;;;;;-1.39;100.00;100660.75;5066703;28;20020;-66
2023/03/11 02:01:26;;;;;;;6.20;1.50;;;;;;;-1.41;100.00;100654.66;5067286;28;20055;-65
2023/03/11 02:03:52;;;;;;;4.70;1.30;;;;;;;-1.43;100.00;100658.75;5066177;28;20437;-65
2023/03/11 02:06:21;;;;;;;4.57;1.13;;;;;;;-1.46;100.00;100664.50;5067004;28;20031;-66
2023/03/11 02:08:46;;;;;;;4.20;1.27;;;;;;;-1.48;100.00;100656.75;5066165;28;20048;-65
2023/03/11 02:11:30;;;;;;;6.60;1.20;;;;;;;-1.51;100.00;100655.63;5066940;28;20029;-65
2023/03/11 02:13:59;;;;;;;6.13;1.40;;;;;;;-1.52;100.00;100657.25;5060881;28;20036;-66
2023/03/11 02:16:25;;;;;;;4.97;1.40;;;;;;;-1.53;100.00;100657.16;5047062;28;20362;-66
2023/03/11 02:18:50;;;;;;;4.10;1.40;;;;;;;-1.56;100.00;100660.31;5070676;28;20039;-66
2023/03/11 02:21:25;;;;;;;5.23;1.30;;;;;;;-1.57;100.00;100671.28;5070941;28;20107;-65
2023/03/11 02:24:23;;;;;;;3.00;1.10;;;;;;;-1.61;100.00;100665.06;5058773;28;20501;-66
2023/03/11 02:27:00;;;;;;;7.00;1.30;;;;;;;-1.64;100.00;100667.38;5070313;28;20020;-66
2023/03/11 02:29:26;;;;;;;4.73;1.23;;;;;;;-1.64;100.00;100669.03;5069805;28;20357;-65
2023/03/11 02:31:53;;;;;;;5.70;1.37;;;;;;;-1.67;100.00;100668.78;5070577;28;20036;-66
2023/03/11 02:34:27;;;;;;;7.63;1.17;;;;;;;-1.68;100.00;100665.34;5069932;28;20095;-66
2023/03/11 02:36:53;;;;;;;6.73;1.80;;;;;;;-1.72;100.00;100666.75;5069465;28;20380;-66
2023/03/11 02:39:32;;;;;;;4.60;1.53;;;;;;;-1.73;100.00;100665.00;5067871;28;20044;-65
2023/03/11 02:41:59;;;;;;;4.50;1.30;;;;;;;-1.78;100.00;100665.41;5069244;28;20032;-66
2023/03/11 02:44:25;;;;;;;4.10;1.20;;;;;;;-1.79;100.00;100664.50;5067387;28;20111;-65
2023/03/11 02:46:52;;;;;;;4.83;1.40;;;;;;;-1.79;100.00;100671.22;5068919;28;20038;-66
2023/03/11 02:49:19;;;;;;;6.10;1.50;;;;;;;-1.81;100.00;100660.94;5067339;28;20024;-66
2023/03/11 02:51:44;;;;;;;3.97;1.93;;;;;;;-1.79;100.00;100664.50;5069256;28;20511;-65
2023/03/11 02:54:09;;;;;;;4.50;1.53;;;;;;;-1.81;100.00;100669.47;5068061;28;20089;-66
2023/03/11 02:56:35;;;;;;;2.23;1.40;;;;;;;-1.80;100.00;100662.72;5069369;28;20028;-65
2023/03/11 02:59:00;;;;;;;4.93;1.23;;;;;;;-1.80;100.00;100667.81;5067749;28;20107;-65
2023/03/11 03:01:25;;;;;;;3.67;1.27;;;;;;;-1.83;100.00;100662.47;5069006;28;20129;-65
2023/03/11 03:03:51;;;;;;;5.30;1.20;;;;;;;-1.84;100.00;100650.53;5065462;28;20067;-65
2023/03/11 03:06:16;;;;;;;6.50;1.40;;;;;;;-1.88;100.00;100661.22;5069541;28;20200;-66
2023/03/11 03:08:42;;;;;;;5.10;1.27;;;;;;;-1.89;100.00;100656.91;5067408;28;20024;-66
2023/03/11 03:11:07;;;;;;;4.97;1.40;;;;;;;-1.91;100.00;100666.97;5068935;28;20024;-65
2023/03/11 03:13:32;;;;;;;6.87;1.40;;;;;;;-1.92;100.00;100669.38;5068692;28;20143;-65
2023/03/11 03:15:58;;;;;;;5.97;1.50;;;;;;;-1.95;100.00;100676.00;5069931;28;20028;-65
2023/03/11 03:18:24;;;;;;;5.40;1.20;;;;;;;-1.95;100.00;100682.72;5053219;28;20032;-65
2023/03/11 03:20:50;;;;;;;7.60;2.40;;;;;;;-1.98;100.00;100688.41;5050015;28;20029;-65
2023/03/11 03:23:16;;;;;;;3.83;1.23;;;;;;;-2.00;100.00;100689.97;5052738;28;20104;-65
2023/03/11 03:25:42;;;;;;;2.97;1.30;;;;;;;-2.03;100.00;100699.88;5070085;28;20143;-65
2023/03/11 03:28:08;;;;;;;2.90;1.30;;;;;;;-2.03;100.00;100704.94;5068213;28;20028;-65
2023/03/11 03:30:33;;;;;;;5.90;1.30;;;;;;;-2.05;100.00;100706.47;5068981;28;20419;-66
2023/03/11 03:32:59;;;;;;;4.93;1.20;;;;;;;-2.06;100.00;100710.69;5068740;28;20046;-65
2023/03/11 03:35:24;;;;;;;4.20;1.93;;;;;;;-2.08;100.00;100714.75;5068899;28;20391;-65
2023/03/11 03:37:49;;;;;;;4.67;1.30;;;;;;;-2.09;100.00;100719.72;5068019;28;20032;-66
2023/03/11 03:40:15;;;;;;;4.87;1.57;;;;;;;-2.10;100.00;100717.91;5069229;28;20028;-65
2023/03/11 03:42:40;;;;;;;7.30;1.47;;;;;;;-2.11;100.00;100719.59;5069147;28;20113;-65
2023/03/11 03:45:07;;;;;;;6.50;1.70;;;;;;;-2.08;100.00;100731.63;5068345;28;20032;-65
2023/03/11 03:47:33;;;;;;;5.17;1.60;;;;;;;-2.07;100.00;100734.28;5068378;28;20494;-65
2023/03/11 03:49:59;;;;;;;4.43;1.20;;;;;;;-2.05;100.00;100730.22;5068544;28;20028;-65
2023/03/11 03:52:24;;;;;;;5.83;1.50;;;;;;;-2.02;100.00;100736.31;5067563;28;20044;-65
2023/03/11 03:54:50;;;;;;;4.17;1.30;;;;;;;-2.02;100.00;100729.59;5068309;28;20047;-65
2023/03/11 03:57:15;;;;;;;3.90;1.23;;;;;;;-2.00;100.00;100730.63;5066975;28;20032;-66
2023/03/11 03:59:40;;;;;;;3.67;1.10;;;;;;;-1.98;100.00;100731.59;5068084;28;20028;-66
2023/03/11 04:02:06;;;;;;;3.93;1.23;;;;;;;-1.99;100.00;100732.38;5066960;28;20031;-65
2023/03/11 04:04:31;;;;;;;3.97;1.30;;;;;;;-1.99;100.00;100732.38;5068548;28;20275;-65
2023/03/11 04:06:56;;;;;;;5.03;1.53;;;;;;;-1.97;100.00;100735.94;5066895;28;20629;-65
2023/03/11 04:09:22;;;;;;;9.10;2.03;;;;;;;-1.97;100.00;100745.19;5067724;28;20465;-65
2023/03/11 04:11:47;;;;;;;9.40;1.63;;;;;;;-1.97;100.00;100743.56;5067294;28;20138;-65
2023/03/11 04:14:12;;;;;;;8.47;1.30;;;;;;;-1.98;100.00;100741.75;5068217;28;20252;-65
2023/03/11 04:16:38;;;;;;;5.03;1.50;;;;;;;-1.98;100.00;100744.31;5052627;28;20134;-65
2023/03/11 04:19:04;;;;;;;5.67;1.83;;;;;;;-2.00;100.00;100739.88;5049059;28;20029;-65
2023/03/11 04:21:31;;;;;;;2.80;1.30;;;;;;;-2.02;100.00;100739.75;5049042;28;20474;-65
2023/03/11 04:23:56;;;;;;;4.67;1.30;;;;;;;-2.05;100.00;100747.09;5049175;28;20063;-65
2023/03/11 04:26:21;;;;;;;3.27;1.37;;;;;;;-2.07;100.00;100747.00;5048953;28;20021;-66
2023/03/11 04:28:46;;;;;;;4.90;1.50;;;;;;;-2.12;100.00;100748.25;5048558;28;20392;-65
2023/03/11 04:31:12;;;;;;;4.03;1.40;;;;;;;-2.12;100.00;100747.41;5048831;28;20487;-66
2023/03/11 04:33:37;;;;;;;4.07;1.20;;;;;;;-2.15;100.00;100754.75;5049177;28;20033;-65
2023/03/11 04:36:07;;;;;;;3.50;1.10;;;;;;;-2.20;100.00;100760.34;5048718;28;20387;-65
2023/03/11 04:38:33;;;;;;;5.87;1.30;;;;;;;-2.22;100.00;100761.88;5048495;28;20065;-65
2023/03/11 04:41:03;;;;;;;5.63;1.50;;;;;;;-2.23;100.00;100756.69;5063340;28;20021;-66
2023/03/11 04:43:28;;;;;;;3.67;1.70;;;;;;;-2.26;100.00;100752.22;5059129;28;20052;-66
2023/03/11 04:45:54;;;;;;;8.10;1.70;;;;;;;-2.27;100.00;100750.44;5049256;28;20176;-65
2023/03/11 04:48:19;;;;;;;5.50;1.80;;;;;;;-2.30;100.00;100756.16;5049045;28;20033;-65
2023/03/11 04:50:45;;;;;;;3.23;1.30;;;;;;;-2.32;100.00;100750.06;5048560;28;20192;-66
2023/03/11 04:53:10;;;;;;;4.40;1.30;;;;;;;-2.32;100.00;100756.81;5047744;28;20409;-65
2023/03/11 04:55:35;;;;;;;7.03;1.60;;;;;;;-2.34;100.00;100758.31;5048586;28;20028;-65
2023/03/11 04:58:01;;;;;;;6.57;1.63;;;;;;;-2.35;100.00;100748.91;5048405;28;20033;-66
2023/03/11 05:00:26;;;;;;;4.07;1.13;;;;;;;-2.37;100.00;100753.88;5060884;28;20033;-65
2023/03/11 05:02:51;;;;;;;6.23;1.40;;;;;;;-2.39;100.00;100752.84;5057792;28;20031;-66
2023/03/11 05:05:20;;;;;;;7.00;1.30;;;;;;;-2.39;100.00;100754.53;5053892;28;20036;-65
2023/03/11 05:07:46;;;;;;;5.97;1.60;;;;;;;-2.40;100.00;100758.69;5056731;28;20040;-65
2023/03/11 05:10:12;;;;;;;4.33;1.40;;;;;;;-2.42;100.00;100763.66;5048245;28;20179;-65
2023/03/11 05:12:37;;;;;;;3.90;1.10;;;;;;;-2.42;100.00;100758.56;5057019;28;20028;-66
2023/03/11 05:15:03;;;;;;;3.47;1.50;;;;;;;-2.41;100.00;100762.88;5052269;28;20252;-65
2023/03/11 05:17:28;;;;;;;4.90;1.63;;;;;;;-2.42;100.00;100766.19;5047725;28;20063;-65
2023/03/11 05:19:54;;;;;;;4.57;1.47;;;;;;;-2.43;100.00;100769.47;5047998;28;20481;-66
2023/03/11 05:22:19;;;;;;;6.50;1.37;;;;;;;-2.46;100.00;100774.28;5047890;28;20485;-65
2023/03/11 05:24:46;;;;;;;4.43;1.40;;;;;;;-2.50;100.00;100762.09;5048463;28;20082;-66
2023/03/11 05:27:11;;;;;;;2.43;1.43;;;;;;;-2.53;100.00;100766.94;5047656;28;20086;-66
2023/03/11 05:29:37;;;;;;;4.17;1.50;;;;;;;-2.56;100.00;100776.84;5047557;28;20496;-65
2023/03/11 05:32:03;;;;;;;4.17;1.70;;;;;;;-2.58;100.00;100779.25;5048203;28;20111;-65
2023/03/11 05:34:28;;;;;;;5.80;1.40;;;;;;;-2.59;100.00;100787.59;5048065;28;20075;-66
2023/03/11 05:36:53;;;;;;;3.03;1.30;;;;;;;-2.62;100.00;100787.34;5047428;28;20035;-65
2023/03/11 05:39:18;;;;;;;4.17;1.30;;;;;;;-2.61;100.00;100788.25;5047300;28;20025;-66
2023/03/11 05:41:44;;;;;;;3.63;1.23;;;;;;;-2.62;100.00;100791.53;5047786;28;20032;-66
2023/03/11 05:44:09;;;;;;;7.40;2.37;;;;;;;-2.63;100.00;100789.75;5047453;28;20029;-65
2023/03/11 05:46:34;;;;;;;3.03;1.47;;;;;;;-2.62;100.00;100796.59;5047614;28;20067;-65
2023/03/11 05:49:00;;;;;;;4.87;1.87;;;;;;;-2.66;100.00;100796.34;5046687;28;20033;-65
2023/03/11 05:51:25;;;;;;;4.90;1.47;;;;;;;-2.67;100.00;100796.22;5046617;28;20135;-66
2023/03/11 05:53:51;;;;;;;4.23;1.57;;;;;;;-2.70;100.00;100794.31;5049092;28;20436;-66
2023/03/11 05:56:19;;;;;;;6.47;3.23;;;;;;;-2.72;100.00;100803.47;5050831;28;20044;-65
2023/03/11 05:58:44;;;;;;;5.53;1.90;;;;;;;-2.70;100.00;100803.59;5050007;28;20473;-65
2023/03/11 06:01:12;;;;;;;6.20;1.50;;;;;;;-2.71;100.00;100807.75;5050318;28;20313;-65
2023/03/11 06:03:39;;;;;;;6.13;1.80;;;;;;;-2.73;100.00;100816.88;5050897;28;20384;-65
2023/03/11 06:06:06;;;;;;;6.07;1.43;;;;;;;-2.73;100.00;100810.91;5059810;28;20097;-65
2023/03/11 06:08:35;;;;;;;3.33;1.47;;;;;;;-2.75;100.00;100815.00;5070484;28;20047;-65
2023/03/11 06:11:03;;;;;;;5.13;1.80;;;;;;;-2.77;100.00;100809.78;5061916;28;20029;-66
2023/03/11 06:13:28;;;;;;;3.50;1.40;;;;;;;-2.78;100.00;100815.59;5054357;28;20102;-65
2023/03/11 06:15:53;;;;;;;4.37;1.63;;;;;;;-2.79;100.00;100824.84;5040556;28;20068;-65
2023/03/11 06:18:19;;;;;;;3.47;1.80;;;;;;;-2.82;100.00;100823.69;5037395;28;20033;-65
2023/03/11 06:20:44;;;;;;;4.53;1.40;;;;;;;-2.80;100.00;100824.72;5033165;28;20452;-65
2023/03/11 06:23:09;;;;;;;4.33;1.73;;;;;;;-2.80;100.00;100822.19;5035772;28;20037;-65
2023/03/11 06:25:34;;;;;;;2.73;1.60;;;;;;;-2.81;100.00;100825.50;5032192;28;20029;-65
2023/03/11 06:28:00;;;;;;;6.13;1.90;;;;;;;-2.79;100.00;100836.69;5033317;28;20017;-65
2023/03/11 06:30:25;;;;;;;6.43;1.80;;;;;;;-2.76;100.00;100842.00;5032707;28;20029;-65
2023/03/11 06:32:50;;;;;;;3.33;1.53;;;;;;;-2.72;100.00;100840.63;5038676;28;20478;-65
2023/03/11 06:35:16;;;;;;;6.13;2.80;;;;;;;-2.72;100.00;100841.53;5030542;28;20381;-65
2023/03/11 06:37:41;;;;;;;5.80;1.80;;;;;;;-2.72;100.00;100840.63;5031840;28;20025;-66
2023/03/11 06:40:08;;;;;;;5.67;1.97;;;;;;;-2.73;100.00;100847.34;5033052;28;20021;-65
2023/03/11 06:42:34;;;;;;;5.30;1.90;;;;;;;-2.71;100.00;100852.53;5040561;28;20040;-65
2023/03/11 06:44:59;;;;;;;6.13;1.50;;;;;;;-2.71;100.00;100855.97;5033921;28;20359;-65
2023/03/11 06:47:25;;;;;;;4.40;1.60;;;;;;;-2.67;100.00;100860.56;5034150;28;20028;-65
2023/03/11 06:49:51;;;;;;;7.53;1.67;;;;;;;-2.64;100.00;100866.66;5034222;28;20030;-65
2023/03/11 06:52:16;;;;;;;6.87;1.40;;;;;;;-2.63;100.00;100869.31;5034237;28;20100;-65
2023/03/11 06:54:42;;;;;;;7.03;1.70;;;;;;;-2.56;100.00;100873.28;5040665;28;20473;-65
2023/03/11 06:57:08;;;;;;;6.37;1.67;;;;;;;-2.43;100.00;100881.16;5032481;28;20013;-66
2023/03/11 06:59:34;;;;;;;4.70;1.57;;;;;;;-2.27;100.00;100891.75;5031614;28;20382;-65
2023/03/11 07:01:59;;;;;;;3.00;1.50;;;;;;;-2.12;100.00;100892.16;5042124;28;20436;-65
2023/03/11 07:04:25;;;;;;;4.00;1.77;;;;;;;-1.97;100.00;100901.06;5047690;28;20052;-65
2023/03/11 07:06:50;;;;;;;8.20;2.00;;;;;;;-1.74;100.00;100904.63;5033968;28;20117;-65
2023/03/11 07:09:16;;;;;;;4.67;1.50;;;;;;;-1.52;100.00;100903.84;5030836;28;20106;-65
2023/03/11 07:11:41;;;;;;;4.27;1.57;;;;;;;-1.25;100.00;100908.53;5035083;28;20385;-65
2023/03/11 07:14:07;;;;;;;5.00;1.80;;;;;;;-0.90;100.00;100912.13;5041334;28;20018;-65
2023/03/11 07:16:32;;;;;;;8.07;1.93;;;;;;;-0.64;100.00;100905.66;5033396;28;20104;-65
2023/03/11 07:18:59;;;;;;;3.03;1.40;;;;;;;-0.58;100.00;100911.25;5039491;28;20108;-65
2023/03/11 07:21:26;;;;;;;9.00;1.67;;;;;;;-0.50;100.00;100912.72;5035911;28;20454;-65
2023/03/11 07:23:53;;;;;;;7.40;1.83;;;;;;;-0.42;100.00;100917.53;5030819;28;20553;-65
2023/03/11 07:26:19;;;;;;;3.17;1.67;;;;;;;-0.32;100.00;100922.56;5031652;28;20025;-66
2023/03/11 07:28:44;;;;;;;3.13;1.47;;;;;;;-0.15;100.00;100920.44;5046086;28;20024;-65
2023/03/11 07:31:13;;;;;;;3.93;1.20;;;;;;;0.10;100.00;100925.75;5054518;28;20029;-65
2023/03/11 07:33:38;;;;;;;4.53;1.23;;;;;;;0.48;100.00;100923.41;5034038;28;20213;-66
2023/03/11 07:36:09;;;;;;;4.77;1.50;;;;;;;0.78;100.00;100918.78;5029519;28;20036;-65
2023/03/11 07:38:35;;;;;;;4.55;1.55;;;;;;;1.18;100.00;100931.00;5030987;28;20026;-65
2023/03/11 07:41:01;;;;;;;3.47;1.20;;;;;;;1.55;100.00;100927.59;5038688;28;20022;-66
2023/03/11 07:43:26;;;;;;;7.10;1.30;;;;;;;2.13;100.00;100922.94;5033549;28;20017;-65
2023/03/11 07:45:53;;;;;;;2.40;1.30;;;;;;;2.64;100.00;100925.47;5048113;28;20388;-65
2023/03/11 07:48:19;;;;;;;6.40;1.50;;;;;;;3.27;100.00;100927.75;5029805;28;20477;-65
2023/03/11 07:50:44;;;;;;;4.57;1.40;;;;;;;3.72;100.00;100934.75;5036063;28;20094;-65
2023/03/11 07:53:09;;;;;;;3.63;1.27;;;;;;;4.13;100.00;100934.59;5035787;28;20152;-65
2023/03/11 07:55:35;;;;;;;2.70;1.33;;;;;;;4.45;100.00;100945.88;5042535;28;20159;-65
2023/03/11 07:58:00;;;;;;;6.87;1.57;;;;;;;4.63;100.00;100945.19;5064005;28;20476;-65
2023/03/11 08:00:25;;;;;;;4.90;2.10;;;;;;;4.88;100.00;100954.28;5058425;28;20036;-66
2023/03/11 08:02:51;;;;;;;5.55;1.73;;;;;;;5.26;100.00;100953.00;5063680;28;20529;-66
2023/03/11 08:05:19;;;;;;;3.83;1.23;;;;;;;5.55;100.00;100950.28;5062678;28;20020;-65
2023/03/11 08:07:44;;;;;;;3.10;1.25;;;;;;;5.93;95.59;100955.72;5069084;28;20020;-65
2023/03/11 08:10:10;;;;;;;4.57;1.25;;;;;;;6.27;89.82;100950.56;5048198;28;20527;-66
2023/03/11 08:12:36;;;;;;;3.28;1.15;;;;;;;6.43;87.71;100952.25;5059057;28;20428;-66
2023/03/11 08:15:01;;;;;;;3.70;1.20;;;;;;;6.65;82.22;100956.78;5067641;28;20392;-66
2023/03/11 08:17:26;;;;;;;9.70;1.80;;;;;;;6.79;81.13;100965.19;5050474;28;20480;-66
2023/03/11 08:19:52;;;;;;;4.25;1.60;;;;;;;6.97;78.53;100959.19;5049178;28;20033;-66
2023/03/11 08:22:17;;;;;;;2.13;1.08;;;;;;;7.08;75.89;100962.28;5050127;28;20017;-66
2023/03/11 08:24:42;;;;;;;5.28;1.70;;;;;;;7.20;75.58;100957.72;5042199;28;20017;-66
2023/03/11 08:27:08;;;;;;;7.40;1.55;;;;;;;7.63;79.85;100959.63;5031623;28;20101;-66
2023/03/11 08:29:34;;;;;;;5.00;1.40;;;;;;;7.88;75.25;100956.50;5038077;28;20034;-66
2023/03/11 08:31:59;;;;;;;4.35;1.60;;;;;;;8.22;71.42;100948.50;5039274;28;20075;-66
2023/03/11 08:34:26;;;;;;;4.68;1.55;;;;;;;8.55;70.43;100958.47;5029485;28;20549;-66
2023/03/11 08:36:51;;;;;;;3.72;1.58;;;;;;;8.76;70.29;100963.69;5029042;28;20553;-66
2023/03/11 08:39:17;;;;;;;3.90;1.20;;;;;;;8.85;67.49;100968.34;5032144;28;20120;-66
2023/03/11 08:41:42;;;;;;;4.65;1.63;;;;;;;8.52;64.35;100969.59;5029569;28;20109;-66
2023/03/11 08:44:07;;;;;;;3.45;1.33;;;;;;;8.49;66.36;100969.44;5044258;28;20800;-66
2023/03/11 08:46:37;;;;;;;4.68;1.45;;;;;;;8.50;65.39;100972.91;5045736;28;20021;-66
2023/03/11 08:49:04;;;;;;;5.40;1.15;;;;;;;8.40;66.29;100974.22;5039176;28;20048;-67
2023/03/11 08:51:32;;;;;;;2.92;1.10;;;;;;;8.42;68.83;100977.72;5047967;28;20139;-66
2023/03/11 08:53:59;;;;;;;7.00;1.92;;;;;;;8.35;63.50;100989.50;5062041;28;20055;-67
2023/03/11 08:56:24;;;;;;;3.22;1.08;;;;;;;8.37;65.97;100982.72;5066161;28;20024;-67
2023/03/11 08:58:50;;;;;;;3.38;0.90;;;;;;;8.35;61.90;100981.75;5063545;28;20201;-67
2023/03/11 09:01:15;;;;;;;3.33;1.42;;;;;;;8.44;64.27;100991.59;5059093;28;20510;-66
2023/03/11 09:03:41;;;;;;;2.25;0.93;;;;;;;8.57;62.50;100994.75;5049064;28;20394;-67
2023/03/11 09:06:10;;;;;;;5.07;0.80;;;;;;;8.63;59.48;101003.63;5067211;28;20028;-66
2023/03/11 09:08:35;;;;;;;2.65;0.75;;;;;;;8.44;56.97;100993.31;5065449;28;20577;-66
2023/03/11 09:11:01;;;;;;;2.72;1.20;;;;;;;8.16;58.70;100995.56;5065963;28;20017;-66
2023/03/11 09:13:27;;;;;;;5.57;1.10;;;;;;;8.05;56.71;101000.25;5039657;28;20064;-66
2023/03/11 09:15:52;;;;;;;3.92;0.80;;;;;;;8.14;59.81;100994.59;5029321;28;20029;-67
2023/03/11 09:18:18;;;;;;;3.25;1.10;;;;;;;8.07;56.14;100998.63;5041070;28;20493;-67
2023/03/11 09:20:44;;;;;;;3.03;0.80;;;;;;;8.13;59.68;100998.88;5053688;28;20446;-67
2023/03/11 09:23:12;;;;;;;3.20;0.77;;;;;;;8.04;54.89;101006.22;5038312;28;20052;-67
2023/03/11 09:25:37;;;;;;;3.30;1.15;;;;;;;7.98;57.32;101003.34;5030277;28;20079;-67
2023/03/11 09:28:03;;;;;;;3.28;0.80;;;;;;;8.07;59.38;101005.47;5038752;28;20028;-67
2023/03/11 09:30:28;;;;;;;2.03;0.82;;;;;;;8.05;58.13;101008.00;5042937;28;20060;-66
2023/03/11 09:32:54;;;;;;;1.95;0.75;;;;;;;7.93;58.96;101013.50;5056461;28;20036;-67
2023/03/11 09:35:19;;;;;;;1.90;0.73;;;;;;;7.83;59.73;101012.16;5056999;28;20505;-67
2023/03/11 09:37:44;;;;;;;1.00;0.50;;;;;;;7.76;60.00;101020.44;5056133;28;20036;-67
2023/03/11 09:40:18;;;;;;;2.90;0.82;;;;;;;7.49;58.12;101023.47;5044043;28;20527;-66
2023/03/11 09:43:09;;;;;;;2.20;0.80;;;;;;;7.33;59.47;101020.16;5058782;28;20414;-66
2023/03/11 09:45:43;;;;;;;3.05;0.80;;;;;;;7.27;60.62;101019.88;5039746;28;20033;-67
2023/03/11 09:48:31;;;;;;;3.67;0.88;;;;;;;7.40;61.39;101017.06;5044746;28;20051;-66
2023/03/11 09:51:07;;;;;;;3.92;0.50;;;;;;;7.34;57.88;101019.34;5050410;28;20029;-67
2023/03/11 09:53:42;;;;;;;2.60;0.50;;;;;;;7.15;57.67;101021.06;5028251;28;20422;-67
2023/03/11 09:56:19;;;;;;;1.55;0.55;;;;;;;6.99;60.62;101019.41;5052516;28;20086;-66
2023/03/11 09:58:49;;;;;;;3.45;0.60;;;;;;;6.62;56.10;101021.00;5054286;28;20028;-67
2023/03/11 10:01:33;;;;;;;2.05;0.50;;;;;;;6.51;64.11;101017.00;5054542;28;20102;-66
2023/03/11 10:04:10;;;;;;;4.70;0.73;;;;;;;6.43;62.05;101021.75;5057809;28;20044;-66
2023/03/11 10:06:35;;;;;;;2.13;0.65;;;;;;;6.32;63.05;101016.03;5048741;28;20103;-67
2023/03/11 10:09:27;;;;;;;1.90;0.60;;;;;;;6.26;58.55;101023.47;5050087;28;20108;-66
2023/03/11 10:12:07;;;;;;;3.30;0.60;;;;;;;6.07;61.08;101013.06;5053387;28;20024;-67
2023/03/11 10:14:41;;;;;;;1.65;0.50;;;;;;;5.96;64.35;101015.03;5033999;28;20037;-67
2023/03/11 10:17:14;;;;;;;2.80;1.02;;;;;;;5.80;65.33;101018.47;5044554;28;20025;-67
2023/03/11 10:19:53;;;;;;;2.40;0.65;;;;;;;5.70;65.30;101027.34;5030367;28;20044;-67
2023/03/11 10:22:36;;;;;;;1.98;0.40;;;;;;;5.57;61.83;101030.06;5034930;28;20036;-66
2023/03/11 10:25:09;;;;;;;4.57;0.57;;;;;;;5.43;65.68;101022.47;5040917;28;20079;-66
2023/03/11 10:27:42;;;;;;;3.40;0.65;;;;;;;5.35;68.21;101023.69;5050059;28;20178;-67
2023/03/11 10:30:19;;;;;;;2.22;0.35;;;;;;;5.34;70.07;101037.38;5053549;28;20282;-66
2023/03/11 10:32:52;;;;;;;0.65;0.40;;;;;;;5.36;69.21;101033.19;5027922;28;20033;-67
2023/03/11 10:35:26;;;;;;;2.70;0.60;;;;;;;5.34;62.88;101042.50;5039200;28;20481;-66
2023/03/11 10:38:13;;;;;;;1.30;0.60;;;;;;;5.31;67.46;101042.34;5041893;28;20135;-67
2023/03/11 10:40:43;;;;;;;1.88;0.80;;;;;;;5.28;68.44;101046.50;5034683;28;20029;-67
2023/03/11 10:43:40;;;;;;;1.92;0.55;;;;;;;5.38;70.50;101044.44;5033157;28;20260;-67
2023/03/11 10:46:17;;;;;;;2.03;0.60;;;;;;;5.51;71.82;101046.91;5041012;28;20437;-66
2023/03/11 10:48:42;;;;;;;6.05;0.60;;;;;;;5.58;67.76;101048.13;5033855;28;20516;-66
2023/03/11 10:51:21;;;;;;;4.75;0.68;;;;;;;5.59;67.67;101049.03;5057532;28;20029;-66
2023/03/11 10:53:55;;;;;;;4.78;0.70;;;;;;;5.58;67.51;101049.81;5052609;28;20106;-65
2023/03/11 10:56:39;;;;;;;3.15;0.52;;;;;;;5.47;65.53;101039.81;5050132;28;20049;-65
2023/03/11 10:59:21;;;;;;;1.85;0.60;;;;;;;5.37;65.85;101048.72;5057377;28;20032;-66
2023/03/11 11:01:55;;;;;;;2.58;0.75;;;;;;;5.42;63.76;101041.25;5045222;28;20106;-65
2023/03/11 11:04:35;;;;;;;3.88;0.68;;;;;;;5.58;67.67;101036.94;5057518;28;20028;-65
2023/03/11 11:07:19;;;;;;;4.38;0.68;;;;;;;5.84;66.92;101037.53;5041111;28;20392;-65
2023/03/11 11:09:44;;;;;;;3.13;0.63;;;;;;;6.00;65.61;101036.66;5054376;28;20040;-66
2023/03/11 11:12:16;;;;;;;1.85;0.55;;;;;;;6.06;66.17;101036.16;5057092;28;20547;-65
2023/03/11 11:14:47;;;;;;;2.25;1.02;;;;;;;6.05;64.46;101039.47;5053825;28;20485;-65
2023/03/11 11:17:23;;;;;;;2.17;1.15;;;;;;;5.99;62.96;101046.06;5040102;28;20568;-66
2023/03/11 11:19:50;;;;;;;2.30;0.40;;;;;;;5.92;62.12;101046.53;5041624;28;20406;-66
2023/03/11 11:22:19;;;;;;;1.40;0.40;;;;;;;5.91;63.89;101046.44;5052075;28;20052;-66
2023/03/11 11:24:52;;;;;;;4.82;0.50;;;;;;;5.90;64.79;101050.69;5038772;28;20436;-66